sensor_id;sensor_type;location;lat;lon;timestamp;pressure;altitude;pressure_sealevel;temperature;humidity
49393;BME280;35268;42.642;23.308;2023-05-14T00:00:10;94324.47;;;14.45;48.48
49393;BME280;35268;42.642;23.308;2023-05-14T00:02:36;94327.25;;;14.49;48.31
49393;BME280;35268;42.642;23.308;2023-05-14T00:05:02;94334.50;;;14.48;48.44
49393;BME280;35268;42.642;23.308;2023-05-14T00:07:27;94330.75;;;14.49;48.76
49393;BME280;35268;42.642;23.308;2023-05-14T00:09:55;94330.84;;;14.53;48.73
49393;BME280;35268;42.642;23.308;2023-05-14T00:12:21;94321.38;;;14.55;48.70
49393;BME280;35268;42.642;23.308;2023-05-14T00:14:46;94326.13;;;14.58;48.51
49393;BME280;35268;42.642;23.308;2023-05-14T00:17:12;94328.47;;;14.60;49.02
49393;BME280;35268;42.642;23.308;2023-05-14T00:19:37;94332.53;;;14.66;49.29
49393;BME280;35268;42.642;23.308;2023-05-14T00:22:09;94324.63;;;14.70;49.40
49393;BME280;35268;42.642;23.308;2023-05-14T00:24:35;94329.72;;;14.62;48.42
49393;BME280;35268;42.642;23.308;2023-05-14T00:27:01;94316.31;;;14.62;47.72
49393;BME280;35268;42.642;23.308;2023-05-14T00:29:26;94313.47;;;14.59;47.90
49393;BME280;35268;42.642;23.308;2023-05-14T00:31:51;94310.34;;;14.57;47.75
49393;BME280;35268;42.642;23.308;2023-05-14T00:34:17;94299.13;;;14.55;47.99
49393;BME280;35268;42.642;23.308;2023-05-14T00:36:42;94308.91;;;14.59;48.31
49393;BME280;35268;42.642;23.308;2023-05-14T00:39:08;94305.78;;;14.57;48.44
49393;BME280;35268;42.642;23.308;2023-05-14T00:41:33;94303.72;;;14.54;48.47
49393;BME280;35268;42.642;23.308;2023-05-14T00:43:59;94303.41;;;14.56;47.94
49393;BME280;35268;42.642;23.308;2023-05-14T00:46:24;94290.50;;;14.49;48.55
49393;BME280;35268;42.642;23.308;2023-05-14T00:48:50;94293.81;;;14.46;48.32
49393;BME280;35268;42.642;23.308;2023-05-14T00:51:16;94298.59;;;14.40;48.37
49393;BME280;35268;42.642;23.308;2023-05-14T00:53:43;94296.75;;;14.32;48.45
49393;BME280;35268;42.642;23.308;2023-05-14T00:56:09;94299.75;;;14.31;48.32
49393;BME280;35268;42.642;23.308;2023-05-14T00:58:35;94287.16;;;14.31;48.47
49393;BME280;35268;42.642;23.308;2023-05-14T01:01:00;94286.56;;;14.25;48.68
49393;BME280;35268;42.642;23.308;2023-05-14T01:03:26;94288.00;;;14.23;48.88
49393;BME280;35268;42.642;23.308;2023-05-14T01:06:12;94281.56;;;14.15;49.08
49393;BME280;35268;42.642;23.308;2023-05-14T01:08:55;94287.25;;;14.14;49.20
49393;BME280;35268;42.642;23.308;2023-05-14T01:14:24;94296.28;;;14.09;49.80
49393;BME280;35268;42.642;23.308;2023-05-14T01:16:57;94286.31;;;14.10;49.88
49393;BME280;35268;42.642;23.308;2023-05-14T01:22:01;94290.78;;;14.05;50.30
49393;BME280;35268;42.642;23.308;2023-05-14T01:24:27;94299.47;;;14.02;50.59
49393;BME280;35268;42.642;23.308;2023-05-14T01:27:05;94297.56;;;14.03;50.65
49393;BME280;35268;42.642;23.308;2023-05-14T01:29:32;94295.06;;;13.98;50.38
49393;BME280;35268;42.642;23.308;2023-05-14T01:32:04;94300.31;;;13.94;50.50
49393;BME280;35268;42.642;23.308;2023-05-14T01:34:30;94300.78;;;13.88;50.36
49393;BME280;35268;42.642;23.308;2023-05-14T01:36:56;94317.78;;;13.92;50.54
49393;BME280;35268;42.642;23.308;2023-05-14T01:39:24;94306.28;;;13.91;50.86
49393;BME280;35268;42.642;23.308;2023-05-14T01:41:50;94306.94;;;13.88;50.94
49393;BME280;35268;42.642;23.308;2023-05-14T01:44:17;94314.00;;;13.93;50.99
49393;BME280;35268;42.642;23.308;2023-05-14T01:46:42;94302.38;;;13.89;51.03
49393;BME280;35268;42.642;23.308;2023-05-14T01:49:08;94303.81;;;13.86;51.30
49393;BME280;35268;42.642;23.308;2023-05-14T01:51:33;94308.25;;;13.82;51.19
49393;BME280;35268;42.642;23.308;2023-05-14T01:53:59;94315.00;;;13.79;51.51
49393;BME280;35268;42.642;23.308;2023-05-14T01:56:24;94307.94;;;13.75;52.09
49393;BME280;35268;42.642;23.308;2023-05-14T01:58:50;94302.91;;;13.73;53.34
49393;BME280;35268;42.642;23.308;2023-05-14T02:01:15;94307.00;;;13.71;53.84
49393;BME280;35268;42.642;23.308;2023-05-14T02:03:41;94311.28;;;13.63;54.47
49393;BME280;35268;42.642;23.308;2023-05-14T02:06:06;94313.69;;;13.56;54.89
49393;BME280;35268;42.642;23.308;2023-05-14T02:08:32;94313.38;;;13.49;54.97
49393;BME280;35268;42.642;23.308;2023-05-14T02:10:57;94307.25;;;13.48;55.67
49393;BME280;35268;42.642;23.308;2023-05-14T02:13:24;94309.50;;;13.37;55.81
49393;BME280;35268;42.642;23.308;2023-05-14T02:15:50;94302.88;;;13.35;55.80
49393;BME280;35268;42.642;23.308;2023-05-14T02:18:16;94312.47;;;13.27;55.97
49393;BME280;35268;42.642;23.308;2023-05-14T02:20:41;94304.00;;;13.25;55.64
49393;BME280;35268;42.642;23.308;2023-05-14T02:23:07;94308.88;;;13.23;55.90
49393;BME280;35268;42.642;23.308;2023-05-14T02:25:32;94314.38;;;13.18;55.78
49393;BME280;35268;42.642;23.308;2023-05-14T02:27:58;94317.53;;;13.11;55.97
49393;BME280;35268;42.642;23.308;2023-05-14T02:30:23;94327.31;;;13.07;55.96
49393;BME280;35268;42.642;23.308;2023-05-14T02:32:49;94315.19;;;13.10;55.82
49393;BME280;35268;42.642;23.308;2023-05-14T02:35:14;94312.03;;;13.08;55.92
49393;BME280;35268;42.642;23.308;2023-05-14T02:37:40;94318.81;;;13.05;56.01
49393;BME280;35268;42.642;23.308;2023-05-14T02:40:06;94326.03;;;13.04;55.66
49393;BME280;35268;42.642;23.308;2023-05-14T02:42:32;94337.84;;;13.03;55.61
49393;BME280;35268;42.642;23.308;2023-05-14T02:44:57;94330.31;;;12.97;56.01
49393;BME280;35268;42.642;23.308;2023-05-14T02:47:22;94343.69;;;12.97;55.90
49393;BME280;35268;42.642;23.308;2023-05-14T02:49:48;94345.09;;;12.94;55.85
49393;BME280;35268;42.642;23.308;2023-05-14T02:52:14;94339.91;;;12.98;55.64
49393;BME280;35268;42.642;23.308;2023-05-14T02:54:39;94353.59;;;12.96;55.42
49393;BME280;35268;42.642;23.308;2023-05-14T02:57:05;94340.22;;;12.96;55.75
49393;BME280;35268;42.642;23.308;2023-05-14T02:59:30;94338.97;;;12.94;55.58
49393;BME280;35268;42.642;23.308;2023-05-14T03:01:56;94337.72;;;12.91;56.05
49393;BME280;35268;42.642;23.308;2023-05-14T03:04:22;94346.34;;;12.88;56.23
49393;BME280;35268;42.642;23.308;2023-05-14T03:06:47;94352.19;;;12.81;55.88
49393;BME280;35268;42.642;23.308;2023-05-14T03:09:12;94344.94;;;12.73;56.59
49393;BME280;35268;42.642;23.308;2023-05-14T03:11:38;94334.72;;;12.67;57.09
49393;BME280;35268;42.642;23.308;2023-05-14T03:14:04;94322.44;;;12.65;57.63
49393;BME280;35268;42.642;23.308;2023-05-14T03:16:29;94314.41;;;12.65;57.95
49393;BME280;35268;42.642;23.308;2023-05-14T03:18:55;94320.88;;;12.64;58.42
49393;BME280;35268;42.642;23.308;2023-05-14T03:21:20;94328.91;;;12.64;58.70
49393;BME280;35268;42.642;23.308;2023-05-14T03:23:45;94329.22;;;12.63;59.86
49393;BME280;35268;42.642;23.308;2023-05-14T03:26:11;94323.69;;;12.59;61.08
49393;BME280;35268;42.642;23.308;2023-05-14T03:28:37;94316.78;;;12.58;62.13
49393;BME280;35268;42.642;23.308;2023-05-14T03:31:02;94317.41;;;12.55;62.67
49393;BME280;35268;42.642;23.308;2023-05-14T03:33:28;94326.84;;;12.44;63.20
49393;BME280;35268;42.642;23.308;2023-05-14T03:35:53;94328.09;;;12.38;64.08
49393;BME280;35268;42.642;23.308;2023-05-14T03:38:19;94340.97;;;12.36;63.80
49393;BME280;35268;42.642;23.308;2023-05-14T03:40:44;94337.03;;;12.33;64.24
49393;BME280;35268;42.642;23.308;2023-05-14T03:43:10;94324.00;;;12.32;64.47
49393;BME280;35268;42.642;23.308;2023-05-14T03:45:36;94322.28;;;12.36;64.33
49393;BME280;35268;42.642;23.308;2023-05-14T03:48:01;94321.78;;;12.34;64.54
49393;BME280;35268;42.642;23.308;2023-05-14T03:50:27;94327.13;;;12.34;64.92
49393;BME280;35268;42.642;23.308;2023-05-14T03:52:52;94338.63;;;12.34;64.87
49393;BME280;35268;42.642;23.308;2023-05-14T03:55:19;94343.19;;;12.34;64.66
49393;BME280;35268;42.642;23.308;2023-05-14T03:57:46;94334.69;;;12.32;64.83
49393;BME280;35268;42.642;23.308;2023-05-14T04:00:12;94321.31;;;12.32;64.52
49393;BME280;35268;42.642;23.308;2023-05-14T04:02:37;94330.75;;;12.38;64.14
49393;BME280;35268;42.642;23.308;2023-05-14T04:05:03;94327.28;;;12.37;63.96
49393;BME280;35268;42.642;23.308;2023-05-14T04:07:29;94335.16;;;12.34;63.71
49393;BME280;35268;42.642;23.308;2023-05-14T04:09:54;94328.38;;;12.28;63.91
49393;BME280;35268;42.642;23.308;2023-05-14T04:12:20;94337.50;;;12.27;64.01
49393;BME280;35268;42.642;23.308;2023-05-14T04:14:45;94337.31;;;12.23;63.64
49393;BME280;35268;42.642;23.308;2023-05-14T04:17:10;94346.94;;;12.24;64.04
49393;BME280;35268;42.642;23.308;2023-05-14T04:19:36;94341.41;;;12.20;63.97
49393;BME280;35268;42.642;23.308;2023-05-14T04:22:01;94345.81;;;12.16;64.14
49393;BME280;35268;42.642;23.308;2023-05-14T04:24:27;94344.72;;;12.17;63.33
49393;BME280;35268;42.642;23.308;2023-05-14T04:26:52;94345.31;;;12.14;63.46
49393;BME280;35268;42.642;23.308;2023-05-14T04:29:18;94357.91;;;12.14;63.31
49393;BME280;35268;42.642;23.308;2023-05-14T04:31:43;94364.19;;;12.18;63.52
49393;BME280;35268;42.642;23.308;2023-05-14T04:34:09;94364.38;;;12.21;63.40
49393;BME280;35268;42.642;23.308;2023-05-14T04:36:34;94373.50;;;12.29;63.84
49393;BME280;35268;42.642;23.308;2023-05-14T04:39:00;94373.19;;;12.31;64.15
49393;BME280;35268;42.642;23.308;2023-05-14T04:41:25;94379.00;;;12.33;65.48
49393;BME280;35268;42.642;23.308;2023-05-14T04:43:54;94375.88;;;12.31;66.11
49393;BME280;35268;42.642;23.308;2023-05-14T04:46:20;94387.19;;;12.28;66.02
49393;BME280;35268;42.642;23.308;2023-05-14T04:48:45;94395.22;;;12.28;67.22
49393;BME280;35268;42.642;23.308;2023-05-14T04:51:11;94390.63;;;12.28;66.45
49393;BME280;35268;42.642;23.308;2023-05-14T04:53:36;94397.25;;;12.31;66.12
49393;BME280;35268;42.642;23.308;2023-05-14T04:56:01;94401.03;;;12.30;66.91
49393;BME280;35268;42.642;23.308;2023-05-14T04:58:27;94406.97;;;12.27;67.46
49393;BME280;35268;42.642;23.308;2023-05-14T05:00:53;94408.41;;;12.33;68.19
49393;BME280;35268;42.642;23.308;2023-05-14T05:03:18;94414.22;;;12.35;68.19
49393;BME280;35268;42.642;23.308;2023-05-14T05:05:44;94417.38;;;12.37;69.12
49393;BME280;35268;42.642;23.308;2023-05-14T05:08:09;94423.38;;;12.42;70.44
49393;BME280;35268;42.642;23.308;2023-05-14T05:10:35;94423.69;;;12.41;68.59
49393;BME280;35268;42.642;23.308;2023-05-14T05:13:01;94424.16;;;12.34;68.33
49393;BME280;35268;42.642;23.308;2023-05-14T05:15:26;94444.41;;;12.35;70.48
49393;BME280;35268;42.642;23.308;2023-05-14T05:17:52;94439.88;;;12.36;70.63
49393;BME280;35268;42.642;23.308;2023-05-14T05:20:17;94444.41;;;12.35;70.10
49393;BME280;35268;42.642;23.308;2023-05-14T05:22:43;94437.81;;;12.33;70.27
49393;BME280;35268;42.642;23.308;2023-05-14T05:25:08;94455.44;;;12.34;70.61
49393;BME280;35268;42.642;23.308;2023-05-14T05:27:34;94456.69;;;12.36;71.06
49393;BME280;35268;42.642;23.308;2023-05-14T05:30:17;94444.91;;;12.37;71.19
49393;BME280;35268;42.642;23.308;2023-05-14T05:32:43;94447.91;;;12.36;70.37
49393;BME280;35268;42.642;23.308;2023-05-14T05:35:08;94451.84;;;12.38;70.73
49393;BME280;35268;42.642;23.308;2023-05-14T05:37:34;94448.84;;;12.40;72.09
49393;BME280;35268;42.642;23.308;2023-05-14T05:39:59;94454.34;;;12.43;72.07
49393;BME280;35268;42.642;23.308;2023-05-14T05:42:25;94452.16;;;12.45;72.59
49393;BME280;35268;42.642;23.308;2023-05-14T05:44:50;94462.06;;;12.45;73.13
49393;BME280;35268;42.642;23.308;2023-05-14T05:47:16;94465.03;;;12.43;73.49
49393;BME280;35268;42.642;23.308;2023-05-14T05:49:41;94461.47;;;12.48;73.46
49393;BME280;35268;42.642;23.308;2023-05-14T05:52:06;94463.03;;;12.49;72.88
49393;BME280;35268;42.642;23.308;2023-05-14T05:54:32;94474.19;;;12.51;73.48
49393;BME280;35268;42.642;23.308;2023-05-14T05:56:58;94468.06;;;12.51;73.68
49393;BME280;35268;42.642;23.308;2023-05-14T05:59:24;94470.91;;;12.54;74.23
49393;BME280;35268;42.642;23.308;2023-05-14T06:01:49;94453.63;;;12.52;74.81
49393;BME280;35268;42.642;23.308;2023-05-14T06:04:15;94447.47;;;12.51;74.75
49393;BME280;35268;42.642;23.308;2023-05-14T06:06:40;94459.28;;;12.50;74.32
49393;BME280;35268;42.642;23.308;2023-05-14T06:09:06;94461.94;;;12.50;74.28
49393;BME280;35268;42.642;23.308;2023-05-14T06:11:33;94461.47;;;12.48;74.28
49393;BME280;35268;42.642;23.308;2023-05-14T06:13:59;94471.19;;;12.44;74.11
49393;BME280;35268;42.642;23.308;2023-05-14T06:16:24;94469.63;;;12.43;73.97
49393;BME280;35268;42.642;23.308;2023-05-14T06:18:50;94463.31;;;12.39;74.02
49393;BME280;35268;42.642;23.308;2023-05-14T06:21:17;94448.84;;;12.40;73.93
49393;BME280;35268;42.642;23.308;2023-05-14T06:23:43;94447.91;;;12.36;73.51
49393;BME280;35268;42.642;23.308;2023-05-14T06:26:08;94446.09;;;12.22;73.36
49393;BME280;35268;42.642;23.308;2023-05-14T06:28:33;94453.16;;;12.18;72.59
49393;BME280;35268;42.642;23.308;2023-05-14T06:30:59;94451.69;;;12.03;72.53
49393;BME280;35268;42.642;23.308;2023-05-14T06:33:24;94464.34;;;11.89;72.81
49393;BME280;35268;42.642;23.308;2023-05-14T06:35:58;94468.03;;;11.79;73.27
49393;BME280;35268;42.642;23.308;2023-05-14T06:38:25;94459.16;;;11.70;73.68
49393;BME280;35268;42.642;23.308;2023-05-14T06:40:50;94463.38;;;11.62;74.23
49393;BME280;35268;42.642;23.308;2023-05-14T06:43:17;94459.41;;;11.60;74.86
49393;BME280;35268;42.642;23.308;2023-05-14T06:45:43;94464.91;;;11.55;74.95
49393;BME280;35268;42.642;23.308;2023-05-14T06:48:08;94467.38;;;11.51;74.80
49393;BME280;35268;42.642;23.308;2023-05-14T06:50:34;94454.94;;;11.47;74.95
49393;BME280;35268;42.642;23.308;2023-05-14T06:53:00;94441.78;;;11.50;75.26
49393;BME280;35268;42.642;23.308;2023-05-14T06:55:25;94447.44;;;11.49;75.33
49393;BME280;35268;42.642;23.308;2023-05-14T06:57:51;94440.50;;;11.48;75.86
49393;BME280;35268;42.642;23.308;2023-05-14T07:00:16;94429.72;;;11.53;76.22
49393;BME280;35268;42.642;23.308;2023-05-14T07:02:42;94430.03;;;11.60;76.31
49393;BME280;35268;42.642;23.308;2023-05-14T07:05:09;94435.09;;;11.61;75.53
49393;BME280;35268;42.642;23.308;2023-05-14T07:07:35;94440.97;;;11.72;76.46
49393;BME280;35268;42.642;23.308;2023-05-14T07:10:00;94437.41;;;11.77;76.66
49393;BME280;35268;42.642;23.308;2023-05-14T07:12:25;94437.72;;;11.84;75.84
49393;BME280;35268;42.642;23.308;2023-05-14T07:14:51;94445.03;;;11.92;75.11
49393;BME280;35268;42.642;23.308;2023-05-14T07:17:17;94452.75;;;11.94;74.17
49393;BME280;35268;42.642;23.308;2023-05-14T07:19:42;94481.66;;;11.92;73.67
49393;BME280;35268;42.642;23.308;2023-05-14T07:22:08;94489.78;;;11.87;73.49
49393;BME280;35268;42.642;23.308;2023-05-14T07:24:33;94481.56;;;11.83;74.11
49393;BME280;35268;42.642;23.308;2023-05-14T07:26:58;94479.97;;;11.82;73.90
49393;BME280;35268;42.642;23.308;2023-05-14T07:29:26;94486.63;;;11.84;73.43
49393;BME280;35268;42.642;23.308;2023-05-14T07:31:51;94484.25;;;11.83;73.84
49393;BME280;35268;42.642;23.308;2023-05-14T07:34:17;94470.09;;;11.82;74.11
49393;BME280;35268;42.642;23.308;2023-05-14T07:36:42;94463.66;;;11.83;73.98
49393;BME280;35268;42.642;23.308;2023-05-14T07:39:08;94470.09;;;11.82;73.77
49393;BME280;35268;42.642;23.308;2023-05-14T07:41:33;94476.41;;;11.87;73.85
49393;BME280;35268;42.642;23.308;2023-05-14T07:43:59;94473.25;;;11.84;73.84
49393;BME280;35268;42.642;23.308;2023-05-14T07:46:24;94476.09;;;11.88;73.97
49393;BME280;35268;42.642;23.308;2023-05-14T07:48:50;94474.81;;;11.85;73.89
49393;BME280;35268;42.642;23.308;2023-05-14T07:51:15;94490.56;;;11.87;73.91
49393;BME280;35268;42.642;23.308;2023-05-14T07:53:41;94492.44;;;11.87;73.90
49393;BME280;35268;42.642;23.308;2023-05-14T07:56:07;94497.78;;;11.87;74.21
49393;BME280;35268;42.642;23.308;2023-05-14T07:58:32;94492.13;;;11.88;74.57
49393;BME280;35268;42.642;23.308;2023-05-14T08:00:59;94481.75;;;11.87;74.36
49393;BME280;35268;42.642;23.308;2023-05-14T08:03:25;94487.63;;;11.89;74.77
49393;BME280;35268;42.642;23.308;2023-05-14T08:05:51;94469.97;;;11.88;74.72
49393;BME280;35268;42.642;23.308;2023-05-14T08:08:16;94485.44;;;11.91;74.50
49393;BME280;35268;42.642;23.308;2023-05-14T08:10:42;94489.97;;;11.90;74.58
49393;BME280;35268;42.642;23.308;2023-05-14T08:13:07;94490.78;;;11.91;75.21
49393;BME280;35268;42.642;23.308;2023-05-14T08:15:33;94477.91;;;11.93;75.01
49393;BME280;35268;42.642;23.308;2023-05-14T08:17:58;94462.19;;;12.00;74.96
49393;BME280;35268;42.642;23.308;2023-05-14T08:20:30;94469.47;;;12.08;74.98
49393;BME280;35268;42.642;23.308;2023-05-14T08:22:56;94465.09;;;12.12;75.23
49393;BME280;35268;42.642;23.308;2023-05-14T08:25:25;94456.31;;;12.20;75.18
49393;BME280;35268;42.642;23.308;2023-05-14T08:27:51;94457.94;;;12.30;74.71
49393;BME280;35268;42.642;23.308;2023-05-14T08:30:18;94459.56;;;12.40;74.47
49393;BME280;35268;42.642;23.308;2023-05-14T08:32:43;94466.63;;;12.44;73.68
49393;BME280;35268;42.642;23.308;2023-05-14T08:35:09;94448.88;;;12.49;73.19
49393;BME280;35268;42.642;23.308;2023-05-14T08:37:37;94458.03;;;12.56;73.48
49393;BME280;35268;42.642;23.308;2023-05-14T08:40:03;94442.16;;;12.60;72.96
49393;BME280;35268;42.642;23.308;2023-05-14T08:42:29;94443.25;;;12.68;73.59
49393;BME280;35268;42.642;23.308;2023-05-14T08:45:04;94443.59;;;12.66;72.65
49393;BME280;35268;42.642;23.308;2023-05-14T08:47:33;94432.72;;;12.62;73.26
49393;BME280;35268;42.642;23.308;2023-05-14T08:52:29;94437.72;;;12.55;72.78
49393;BME280;35268;42.642;23.308;2023-05-14T08:54:55;94444.94;;;12.46;73.52
49393;BME280;35268;42.642;23.308;2023-05-14T08:57:21;94449.34;;;12.42;73.29
49393;BME280;35268;42.642;23.308;2023-05-14T08:59:49;94435.63;;;12.35;73.50
49393;BME280;35268;42.642;23.308;2023-05-14T09:02:17;94436.38;;;12.27;73.16
49393;BME280;35268;42.642;23.308;2023-05-14T09:04:46;94438.53;;;12.16;73.41
49393;BME280;35268;42.642;23.308;2023-05-14T09:07:12;94437.88;;;12.10;73.02
49393;BME280;35268;42.642;23.308;2023-05-14T09:09:40;94435.22;;;12.10;73.82
49393;BME280;35268;42.642;23.308;2023-05-14T09:12:06;94433.78;;;12.04;73.76
49393;BME280;35268;42.642;23.308;2023-05-14T09:14:32;94438.53;;;12.07;74.42
49393;BME280;35268;42.642;23.308;2023-05-14T09:16:57;94425.16;;;12.07;75.02
49393;BME280;35268;42.642;23.308;2023-05-14T09:19:23;94443.72;;;12.12;74.16
49393;BME280;35268;42.642;23.308;2023-05-14T09:21:49;94437.41;;;12.08;73.80
49393;BME280;35268;42.642;23.308;2023-05-14T09:24:20;94438.84;;;12.14;74.37
49393;BME280;35268;42.642;23.308;2023-05-14T09:26:49;94452.72;;;12.25;74.53
49393;BME280;35268;42.642;23.308;2023-05-14T09:29:15;94430.25;;;12.26;74.45
49393;BME280;35268;42.642;23.308;2023-05-14T09:31:41;94415.31;;;12.25;74.50
49393;BME280;35268;42.642;23.308;2023-05-14T09:34:09;94420.81;;;12.29;74.13
49393;BME280;35268;42.642;23.308;2023-05-14T09:36:35;94429.47;;;12.26;73.37
49393;BME280;35268;42.642;23.308;2023-05-14T09:39:03;94436.19;;;12.23;73.48
49393;BME280;35268;42.642;23.308;2023-05-14T09:41:31;94424.72;;;12.22;73.75
49393;BME280;35268;42.642;23.308;2023-05-14T09:43:56;94421.72;;;12.15;73.76
49393;BME280;35268;42.642;23.308;2023-05-14T09:46:22;94398.75;;;12.14;74.67
49393;BME280;35268;42.642;23.308;2023-05-14T09:48:48;94401.91;;;12.16;74.02
49393;BME280;35268;42.642;23.308;2023-05-14T09:51:15;94403.03;;;12.15;74.71
49393;BME280;35268;42.642;23.308;2023-05-14T09:53:43;94401.75;;;12.13;74.72
49393;BME280;35268;42.642;23.308;2023-05-14T09:56:08;94408.03;;;12.17;74.25
49393;BME280;35268;42.642;23.308;2023-05-14T09:58:34;94412.44;;;12.13;74.35
49393;BME280;35268;42.642;23.308;2023-05-14T10:01:00;94414.19;;;12.17;74.14
49393;BME280;35268;42.642;23.308;2023-05-14T10:03:28;94398.28;;;12.12;73.71
49393;BME280;35268;42.642;23.308;2023-05-14T10:05:55;94394.34;;;12.10;73.96
49393;BME280;35268;42.642;23.308;2023-05-14T10:08:35;94382.56;;;12.11;74.59
49393;BME280;35268;42.642;23.308;2023-05-14T10:11:09;94383.97;;;12.08;74.85
49393;BME280;35268;42.642;23.308;2023-05-14T10:13:40;94383.00;;;12.04;74.60
49393;BME280;35268;42.642;23.308;2023-05-14T10:16:26;94370.13;;;12.06;75.14
49393;BME280;35268;42.642;23.308;2023-05-14T10:18:55;94365.41;;;12.03;74.98
49393;BME280;35268;42.642;23.308;2023-05-14T10:21:25;94362.28;;;12.01;75.37
49393;BME280;35268;42.642;23.308;2023-05-14T10:23:54;94366.00;;;11.91;75.27
49393;BME280;35268;42.642;23.308;2023-05-14T10:26:20;94371.66;;;11.90;75.67
49393;BME280;35268;42.642;23.308;2023-05-14T10:28:46;94390.47;;;11.84;74.93
49393;BME280;35268;42.642;23.308;2023-05-14T10:31:11;94385.41;;;11.83;75.25
49393;BME280;35268;42.642;23.308;2023-05-14T10:33:47;94385.53;;;11.78;75.08
49393;BME280;35268;42.642;23.308;2023-05-14T10:36:16;94399.19;;;11.76;75.70
49393;BME280;35268;42.642;23.308;2023-05-14T10:38:42;94379.69;;;11.67;76.06
49393;BME280;35268;42.642;23.308;2023-05-14T10:41:12;94378.47;;;11.73;76.73
49393;BME280;35268;42.642;23.308;2023-05-14T10:43:40;94358.53;;;11.79;77.48
49393;BME280;35268;42.642;23.308;2023-05-14T10:46:07;94386.19;;;11.83;76.49
49393;BME280;35268;42.642;23.308;2023-05-14T10:48:33;94391.47;;;11.89;77.18
49393;BME280;35268;42.642;23.308;2023-05-14T10:51:00;94367.75;;;11.96;77.35
49393;BME280;35268;42.642;23.308;2023-05-14T10:53:36;94363.38;;;12.09;77.14
49393;BME280;35268;42.642;23.308;2023-05-14T10:56:20;94368.31;;;12.24;77.13
49393;BME280;35268;42.642;23.308;2023-05-14T10:58:48;94367.72;;;12.36;76.75
49393;BME280;35268;42.642;23.308;2023-05-14T11:01:14;94355.00;;;12.50;76.29
49393;BME280;35268;42.642;23.308;2023-05-14T11:03:44;94344.63;;;12.66;75.37
49393;BME280;35268;42.642;23.308;2023-05-14T11:06:12;94353.59;;;12.79;75.28
49393;BME280;35268;42.642;23.308;2023-05-14T11:08:38;94370.28;;;12.93;74.53
49393;BME280;35268;42.642;23.308;2023-05-14T11:11:04;94378.78;;;12.95;73.09
49393;BME280;35268;42.642;23.308;2023-05-14T11:13:30;94370.91;;;12.90;73.49
49393;BME280;35268;42.642;23.308;2023-05-14T11:15:59;94357.38;;;12.95;73.21
49393;BME280;35268;42.642;23.308;2023-05-14T11:18:29;94366.03;;;13.01;72.62
49393;BME280;35268;42.642;23.308;2023-05-14T11:20:59;94373.44;;;12.95;72.35
49393;BME280;35268;42.642;23.308;2023-05-14T11:23:25;94375.63;;;12.93;72.51
49393;BME280;35268;42.642;23.308;2023-05-14T11:25:51;94371.22;;;12.97;72.98
49393;BME280;35268;42.642;23.308;2023-05-14T11:28:19;94364.44;;;13.00;73.10
49393;BME280;35268;42.642;23.308;2023-05-14T11:30:45;94363.97;;;13.07;72.82
49393;BME280;35268;42.642;23.308;2023-05-14T11:33:11;94355.94;;;13.07;73.79
49393;BME280;35268;42.642;23.308;2023-05-14T11:35:36;94361.75;;;13.09;74.49
49393;BME280;35268;42.642;23.308;2023-05-14T11:38:02;94372.16;;;13.10;72.77
49393;BME280;35268;42.642;23.308;2023-05-14T11:40:27;94372.47;;;13.09;72.37
49393;BME280;35268;42.642;23.308;2023-05-14T11:42:53;94366.97;;;13.05;72.48
49393;BME280;35268;42.642;23.308;2023-05-14T11:45:26;94358.16;;;13.04;73.31
49393;BME280;35268;42.642;23.308;2023-05-14T11:47:52;94340.50;;;13.12;73.56
49393;BME280;35268;42.642;23.308;2023-05-14T11:50:21;94343.81;;;13.18;73.97
49393;BME280;35268;42.642;23.308;2023-05-14T11:52:47;94347.91;;;13.24;74.50
49393;BME280;35268;42.642;23.308;2023-05-14T11:55:15;94341.94;;;13.36;74.09
49393;BME280;35268;42.642;23.308;2023-05-14T11:57:45;94342.09;;;13.39;72.76
49393;BME280;35268;42.642;23.308;2023-05-14T12:00:10;94341.63;;;13.37;72.27
49393;BME280;35268;42.642;23.308;2023-05-14T12:02:47;94339.88;;;13.41;72.49
49393;BME280;35268;42.642;23.308;2023-05-14T12:05:12;94344.44;;;13.50;72.02
49393;BME280;35268;42.642;23.308;2023-05-14T12:07:38;94346.75;;;13.51;70.84
49393;BME280;35268;42.642;23.308;2023-05-14T12:10:04;94339.38;;;13.48;71.54
49393;BME280;35268;42.642;23.308;2023-05-14T12:12:34;94337.91;;;13.59;71.62
49393;BME280;35268;42.642;23.308;2023-05-14T12:15:00;94320.88;;;13.73;71.78
49393;BME280;35268;42.642;23.308;2023-05-14T12:17:25;94299.22;;;13.87;71.48
49393;BME280;35268;42.642;23.308;2023-05-14T12:19:51;94302.16;;;13.94;71.23
49393;BME280;35268;42.642;23.308;2023-05-14T12:22:21;94307.88;;;13.92;70.54
49393;BME280;35268;42.642;23.308;2023-05-14T12:24:57;94294.34;;;13.89;70.34
49393;BME280;35268;42.642;23.308;2023-05-14T12:27:24;94306.16;;;13.88;70.36
49393;BME280;35268;42.642;23.308;2023-05-14T12:30:04;94292.13;;;13.91;69.31
49393;BME280;35268;42.642;23.308;2023-05-14T12:32:33;94283.94;;;13.87;70.08
49393;BME280;35268;42.642;23.308;2023-05-14T12:34:59;94285.84;;;13.78;69.75
49393;BME280;35268;42.642;23.308;2023-05-14T12:37:28;94286.81;;;13.82;70.16
49393;BME280;35268;42.642;23.308;2023-05-14T12:39:53;94292.94;;;13.82;70.59
49393;BME280;35268;42.642;23.308;2023-05-14T12:42:19;94284.25;;;13.85;70.18
49393;BME280;35268;42.642;23.308;2023-05-14T12:44:44;94274.34;;;13.77;69.89
49393;BME280;35268;42.642;23.308;2023-05-14T12:47:10;94288.25;;;13.71;70.02
49393;BME280;35268;42.642;23.308;2023-05-14T12:49:35;94284.03;;;13.61;69.82
49393;BME280;35268;42.642;23.308;2023-05-14T12:52:01;94281.56;;;13.56;70.39
49393;BME280;35268;42.642;23.308;2023-05-14T12:54:26;94264.09;;;13.50;70.15